Time;durP1;ratioP1;P1;durP2;ratioP2;P2;SDS_P1;SDS_P2;PMS_P1;PMS_P2;Temp;Humidity;BMP_temperature;BMP_pressure;BME280_temperature;BME280_humidity;BME280_pressure;Samples;Min_cycle;Max_cycle;Signal;HPM_P1;HPM_P2
2022/03/17 00:00:44;;;;;;;35.27;16.70;;;;;;;7.10;79.84;95367.69;5056507;28;20650;-87
2022/03/17 00:03:09;;;;;;;40.07;18.87;;;;;;;7.42;79.61;95418.97;5074295;28;20177;-87
2022/03/17 00:05:36;;;;;;;37.97;20.33;;;;;;;7.27;80.11;95389.28;5056042;28;20170;-88
2022/03/17 00:08:03;;;;;;;36.47;18.60;;;;;;;7.63;79.43;95432.19;5072742;28;20269;-87
2022/03/17 00:10:29;;;;;;;40.60;18.40;;;;;;;7.93;79.40;95485.47;5054216;28;20178;-87
2022/03/17 00:12:55;;;;;;;35.80;18.47;;;;;;;8.00;79.05;95490.81;5072114;28;20181;-87
2022/03/17 00:15:20;;;;;;;36.47;16.87;;;;;;;7.77;78.63;95446.31;5054151;28;20187;-87
2022/03/17 00:17:46;;;;;;;32.47;16.07;;;;;;;8.03;78.18;95488.66;5073130;28;20166;-87
2022/03/17 00:20:12;;;;;;;35.93;16.03;;;;;;;7.72;78.33;95446.84;5085292;28;20139;-85
2022/03/17 00:22:39;;;;;;;24.40;14.33;;;;;;;7.60;78.11;95423.88;5077883;28;20201;-87
2022/03/17 00:25:06;;;;;;;31.23;16.33;;;;;;;7.62;78.66;95427.13;5072920;28;20639;-87
2022/03/17 00:27:33;;;;;;;32.47;15.67;;;;;;;8.00;78.36;95481.13;5073162;28;20198;-87
2022/03/17 00:29:59;;;;;;;30.63;15.73;;;;;;;7.85;78.87;95462.78;5072937;28;20201;-87
2022/03/17 00:32:25;;;;;;;31.17;17.17;;;;;;;8.00;78.97;95489.00;5068207;28;20214;-85
2022/03/17 00:37:35;;;;;;;27.30;16.80;;;;;;;7.75;77.79;95440.44;5070146;28;20220;-86
2022/03/17 00:40:03;;;;;;;36.53;18.00;;;;;;;7.86;78.68;95488.00;5054683;28;20191;-87
2022/03/17 00:42:28;;;;;;;32.97;17.57;;;;;;;7.32;79.52;95406.13;5072272;28;20176;-87
2022/03/17 00:44:54;;;;;;;37.77;17.70;;;;;;;7.38;79.71;95423.75;5072937;28;20159;-88
2022/03/17 00:47:21;;;;;;;28.70;17.60;;;;;;;7.80;79.85;95499.19;5072176;28;20225;-87
2022/03/17 00:49:47;;;;;;;34.27;18.13;;;;;;;7.84;80.05;95503.09;5072224;28;20185;-88
2022/03/17 00:52:14;;;;;;;35.00;17.10;;;;;;;7.52;80.35;95445.75;5053136;28;20174;-88
2022/03/17 00:54:41;;;;;;;36.53;17.40;;;;;;;7.69;80.26;95467.38;5053537;28;20655;-88
2022/03/17 00:57:10;;;;;;;23.37;12.50;;;;;;;7.57;79.94;95451.25;5053467;28;20182;-88
2022/03/17 00:59:38;;;;;;;16.70;8.57;;;;;;;8.06;78.64;95517.13;5070782;28;20272;-88
2022/03/17 01:02:05;;;;;;;14.70;8.83;;;;;;;8.03;78.89;95522.75;5054252;28;20181;-88
2022/03/17 01:04:32;;;;;;;13.23;8.53;;;;;;;8.04;78.71;95521.75;5054076;28;20189;-88
2022/03/17 01:06:57;;;;;;;13.70;8.33;;;;;;;7.46;78.15;95443.81;5072037;28;20612;-89
2022/03/17 01:09:23;;;;;;;11.80;7.40;;;;;;;7.80;78.02;95512.28;5054163;28;20188;-88
2022/03/17 01:11:49;;;;;;;11.17;7.03;;;;;;;7.46;77.82;95467.38;5072005;28;20174;-89
2022/03/17 01:14:15;;;;;;;11.87;6.93;;;;;;;7.73;77.08;95521.03;5054208;28;20227;-88
2022/03/17 01:16:41;;;;;;;9.60;5.87;;;;;;;7.41;76.36;95488.06;5072470;28;20178;-88
2022/03/17 01:19:06;;;;;;;7.67;4.57;;;;;;;7.30;75.94;95485.84;5054096;28;20186;-88
2022/03/17 01:21:32;;;;;;;6.00;4.50;;;;;;;7.22;75.37;95480.66;5071950;28;20673;-88
2022/03/17 01:23:58;;;;;;;8.07;4.80;;;;;;;7.31;75.37;95513.66;5072133;28;20155;-85
2022/03/17 01:26:23;;;;;;;6.20;3.97;;;;;;;7.07;76.15;95478.81;5053858;28;20209;-87
2022/03/17 01:28:49;;;;;;;5.13;3.70;;;;;;;7.37;75.64;95531.28;5069383;28;20186;-87
2022/03/17 01:31:15;;;;;;;4.50;3.20;;;;;;;7.15;75.31;95499.69;5071501;28;20190;-88
2022/03/17 01:33:40;;;;;;;4.23;3.20;;;;;;;6.88;75.00;95463.53;5053602;28;20225;-88
2022/03/17 01:36:06;;;;;;;4.57;3.00;;;;;;;6.96;75.19;95487.03;5078051;28;20170;-87
2022/03/17 01:38:31;;;;;;;5.43;3.23;;;;;;;6.87;75.63;95480.22;5078261;28;20179;-87
2022/03/17 01:40:57;;;;;;;3.33;2.73;;;;;;;6.76;74.72;95447.41;5072159;28;20205;-87
2022/03/17 01:43:22;;;;;;;4.40;2.90;;;;;;;7.14;74.57;95519.00;5072222;28;20277;-87
2022/03/17 01:45:48;;;;;;;4.07;3.10;;;;;;;7.32;74.93;95544.09;5072074;28;20825;-87
2022/03/17 01:48:13;;;;;;;4.77;3.10;;;;;;;6.97;75.42;95488.69;5059071;28;20163;-88
2022/03/17 01:50:39;;;;;;;3.47;2.80;;;;;;;6.93;75.40;95487.38;5072237;28;20638;-88
2022/03/17 01:53:04;;;;;;;3.53;3.00;;;;;;;6.65;74.74;95453.06;5053685;28;20574;-88
2022/03/17 01:55:33;;;;;;;27.07;13.60;;;;;;;6.66;75.26;95457.28;5053593;28;20559;-87
2022/03/17 01:57:59;;;;;;;5.50;3.20;;;;;;;6.92;75.65;95511.13;5053862;28;20590;-88
2022/03/17 02:00:25;;;;;;;4.77;3.33;;;;;;;6.59;76.71;95471.22;5053672;28;20159;-88
2022/03/17 02:02:51;;;;;;;5.70;4.20;;;;;;;7.06;76.64;95555.69;5071145;28;20165;-88
2022/03/17 02:05:18;;;;;;;4.93;3.70;;;;;;;6.74;77.14;95509.59;5056576;28;20279;-88
2022/03/17 02:07:52;;;;;;;8.40;4.00;;;;;;;6.94;77.87;95541.34;5056195;28;20202;-88
2022/03/17 02:10:20;;;;;;;7.13;4.47;;;;;;;6.48;77.66;95469.00;5054405;28;20174;-86
2022/03/17 02:15:33;;;;;;;7.23;4.40;;;;;;;6.51;79.17;95482.53;5072706;28;20197;-87
2022/03/17 02:17:59;;;;;;;8.20;5.30;;;;;;;6.97;79.39;95548.88;5057320;28;20175;-87
2022/03/17 02:20:26;;;;;;;8.20;4.60;;;;;;;7.07;79.58;95567.00;5057466;28;20216;-88
2022/03/17 02:22:54;;;;;;;7.23;5.00;;;;;;;7.03;79.24;95550.81;5074982;28;20171;-87
2022/03/17 02:25:35;;;;;;;8.27;5.37;;;;;;;7.04;79.05;95536.72;5074319;28;20327;-87
2022/03/17 02:28:05;;;;;;;9.00;5.20;;;;;;;7.31;79.18;95573.88;5056447;28;20675;-87
2022/03/17 02:30:34;;;;;;;6.70;4.77;;;;;;;6.98;78.70;95516.50;5056136;28;20170;-87
2022/03/17 02:33:08;;;;;;;7.30;4.90;;;;;;;7.24;78.57;95555.44;5074676;28;20214;-87
2022/03/17 02:35:35;;;;;;;7.73;5.30;;;;;;;7.35;78.97;95575.97;5074780;28;20561;-87
2022/03/17 02:38:04;;;;;;;8.27;5.43;;;;;;;7.28;78.44;95576.84;5074845;28;20170;-87
2022/03/17 02:40:31;;;;;;;7.33;4.57;;;;;;;7.13;78.43;95574.16;5074649;28;20251;-88
2022/03/17 02:42:57;;;;;;;6.60;4.47;;;;;;;7.26;79.18;95587.50;5056555;28;20174;-88
2022/03/17 02:45:23;;;;;;;7.40;4.40;;;;;;;7.14;78.89;95557.47;5056744;28;20175;-87
2022/03/17 02:47:49;;;;;;;4.70;4.00;;;;;;;7.08;78.30;95540.66;5073957;28;20206;-88
2022/03/17 02:50:14;;;;;;;7.27;4.37;;;;;;;6.94;78.55;95525.66;5089968;28;20151;-87
2022/03/17 02:52:40;;;;;;;5.07;3.60;;;;;;;7.06;78.37;95571.41;5075452;28;20178;-87
2022/03/17 02:55:08;;;;;;;5.33;3.70;;;;;;;6.57;77.50;95501.97;5074427;28;20178;-88
2022/03/17 02:57:33;;;;;;;5.73;4.10;;;;;;;6.81;77.14;95530.63;5074857;28;20221;-88
2022/03/17 02:59:59;;;;;;;4.80;3.90;;;;;;;7.12;76.99;95598.69;5073930;28;20667;-89
2022/03/17 03:02:25;;;;;;;4.83;3.50;;;;;;;7.06;77.53;95586.28;5090721;28;20158;-88
2022/03/17 03:04:50;;;;;;;5.93;3.87;;;;;;;6.97;77.71;95584.69;5055605;28;20219;-87
2022/03/17 03:07:17;;;;;;;7.07;4.07;;;;;;;7.00;78.11;95602.69;5055269;28;20194;-87
2022/03/17 03:09:42;;;;;;;5.07;3.90;;;;;;;6.98;78.14;95595.00;5055181;28;20197;-87
2022/03/17 03:12:08;;;;;;;7.70;3.47;;;;;;;6.72;78.52;95584.81;5055338;28;20206;-87
2022/03/17 03:14:34;;;;;;;5.83;3.50;;;;;;;6.81;78.56;95599.50;5054183;28;20647;-88
2022/03/17 03:17:00;;;;;;;4.37;3.13;;;;;;;6.42;78.37;95539.28;5074941;28;20200;-87
2022/03/17 03:19:26;;;;;;;12.00;3.80;;;;;;;6.50;78.67;95551.50;5056366;28;20182;-88
2022/03/17 03:21:51;;;;;;;5.43;3.40;;;;;;;6.61;78.89;95573.88;5056067;28;20980;-87
2022/03/17 03:24:17;;;;;;;4.73;3.87;;;;;;;6.64;77.12;95586.63;5073859;28;20159;-87
2022/03/17 03:26:43;;;;;;;6.23;3.87;;;;;;;6.65;77.61;95611.81;5073487;28;20199;-87
2022/03/17 03:31:44;;;;;;;3.63;3.20;;;;;;;6.37;77.98;95583.44;5070561;28;20166;-88
2022/03/17 03:34:10;;;;;;;5.57;3.50;;;;;;;6.31;77.38;95576.22;5072781;28;20302;-88
2022/03/17 03:39:20;;;;;;;7.73;4.50;;;;;;;5.92;75.83;95562.25;5072911;28;20205;-87
2022/03/17 03:41:45;;;;;;;7.10;4.17;;;;;;;5.97;76.55;95599.13;5073214;28;20178;-87
2022/03/17 03:44:14;;;;;;;4.83;3.70;;;;;;;5.95;76.78;95606.34;5055599;28;20167;-88
2022/03/17 03:46:40;;;;;;;7.50;4.43;;;;;;;6.08;77.04;95624.94;5073410;28;20675;-87
2022/03/17 03:49:06;;;;;;;7.20;4.63;;;;;;;5.75;76.28;95591.94;5055272;28;20178;-87
2022/03/17 03:51:31;;;;;;;8.93;6.00;;;;;;;5.69;76.16;95568.13;5073635;28;20155;-88
2022/03/17 03:56:45;;;;;;;7.50;5.17;;;;;;;5.91;77.54;95637.19;5073801;28;20215;-88
2022/03/17 03:59:21;;;;;;;7.60;4.83;;;;;;;5.92;77.23;95646.69;5073005;28;20179;-88
2022/03/17 04:01:52;;;;;;;9.53;5.63;;;;;;;5.38;77.71;95572.31;5054708;28;20177;-91
2022/03/17 04:04:19;;;;;;;9.40;5.87;;;;;;;5.72;77.76;95616.56;5064168;28;20166;-89
2022/03/17 04:06:50;;;;;;;9.57;5.93;;;;;;;5.64;76.65;95612.16;5080484;28;20221;-88
2022/03/17 04:09:19;;;;;;;9.33;5.70;;;;;;;5.78;76.84;95651.69;5054796;28;20166;-88
2022/03/17 04:11:46;;;;;;;9.20;6.47;;;;;;;5.22;77.19;95580.13;5073471;28;20181;-88
2022/03/17 04:14:12;;;;;;;10.43;6.43;;;;;;;5.61;77.73;95645.63;5055239;28;20654;-88
2022/03/17 04:16:38;;;;;;;11.43;7.47;;;;;;;5.63;78.37;95657.53;5086006;28;20162;-87
2022/03/17 04:19:05;;;;;;;9.37;5.97;;;;;;;5.66;78.40;95672.06;5076691;28;20713;-88
2022/03/17 04:21:31;;;;;;;10.40;6.53;;;;;;;5.32;78.15;95606.91;5054310;28;20182;-88
2022/03/17 04:23:57;;;;;;;9.80;6.63;;;;;;;5.62;79.11;95681.22;5072198;28;20175;-88
2022/03/17 04:26:23;;;;;;;11.83;7.33;;;;;;;5.11;78.85;95622.97;5053980;28;20212;-88
2022/03/17 04:28:48;;;;;;;10.57;6.37;;;;;;;4.93;79.48;95591.75;5054772;28;20166;-88
2022/03/17 04:31:14;;;;;;;11.03;6.70;;;;;;;4.89;79.92;95603.50;5054647;28;20167;-88
2022/03/17 04:33:39;;;;;;;11.67;6.70;;;;;;;5.40;80.37;95690.44;5063460;28;20775;-88
2022/03/17 04:36:06;;;;;;;10.13;6.60;;;;;;;4.99;80.56;95633.88;5072013;28;20253;-88
2022/03/17 04:38:32;;;;;;;10.53;6.93;;;;;;;5.25;80.10;95668.53;5070711;28;20166;-89
2022/03/17 04:40:58;;;;;;;9.40;6.40;;;;;;;5.49;79.99;95699.94;5070478;28;20936;-89
2022/03/17 04:43:25;;;;;;;10.23;6.90;;;;;;;5.50;79.89;95701.59;5071399;28;20174;-88
2022/03/17 04:45:51;;;;;;;11.13;7.20;;;;;;;5.56;80.07;95695.72;5072512;28;20643;-88
2022/03/17 04:48:16;;;;;;;9.40;6.73;;;;;;;5.54;79.77;95692.44;5071202;28;20170;-88
2022/03/17 04:50:43;;;;;;;10.60;6.90;;;;;;;5.51;79.85;95705.00;5070837;28;20185;-88
2022/03/17 04:53:28;;;;;;;10.40;6.43;;;;;;;5.54;80.49;95702.88;5072712;28;20204;-88
2022/03/17 04:56:04;;;;;;;12.00;7.17;;;;;;;5.55;80.00;95709.75;5071347;28;20189;-88
2022/03/17 04:58:32;;;;;;;10.13;6.50;;;;;;;5.38;79.77;95702.00;5071035;28;20200;-89
2022/03/17 05:01:01;;;;;;;11.37;7.23;;;;;;;5.43;80.33;95711.03;5071244;28;20179;-89
2022/03/17 05:03:27;;;;;;;9.97;6.23;;;;;;;5.11;80.07;95658.69;5070145;28;20653;-89
2022/03/17 05:05:53;;;;;;;8.23;5.60;;;;;;;5.11;78.94;95669.13;5070185;28;20209;-88
2022/03/17 05:08:19;;;;;;;15.47;6.23;;;;;;;5.08;79.38;95675.50;5070472;28;20186;-89
2022/03/17 05:10:47;;;;;;;8.03;5.47;;;;;;;4.96;79.09;95647.22;5071833;28;20182;-89
2022/03/17 05:13:13;;;;;;;10.57;6.07;;;;;;;5.07;79.17;95673.84;5071428;28;20565;-89
2022/03/17 05:15:40;;;;;;;8.93;5.30;;;;;;;5.34;78.83;95714.59;5071001;28;20340;-89
2022/03/17 05:18:06;;;;;;;10.87;5.97;;;;;;;4.96;79.13;95681.94;5071038;28;20178;-89
2022/03/17 05:20:36;;;;;;;9.13;5.90;;;;;;;4.97;79.27;95698.41;5087968;28;20190;-89
2022/03/17 05:23:07;;;;;;;9.17;4.70;;;;;;;5.02;80.36;95719.63;5071795;28;20642;-88
2022/03/17 05:25:32;;;;;;;7.20;5.33;;;;;;;4.94;81.04;95702.16;5069922;28;20204;-88
2022/03/17 05:27:59;;;;;;;7.63;4.70;;;;;;;4.94;79.79;95715.19;5071377;28;20624;-88
2022/03/17 05:30:26;;;;;;;9.07;5.90;;;;;;;5.08;79.83;95727.69;5073201;28;20163;-89
2022/03/17 05:32:51;;;;;;;9.27;5.07;;;;;;;5.20;79.89;95756.91;5085773;28;20309;-89
2022/03/17 05:35:17;;;;;;;10.57;5.77;;;;;;;4.99;80.00;95719.97;5071268;28;20262;-89
2022/03/17 05:37:43;;;;;;;7.47;5.07;;;;;;;4.80;80.18;95676.66;5071464;28;20170;-89
2022/03/17 05:40:17;;;;;;;7.57;5.57;;;;;;;5.29;78.92;95764.63;5054591;28;20678;-89
2022/03/17 05:42:47;;;;;;;7.57;4.50;;;;;;;5.21;78.66;95754.16;5075294;28;20177;-89
2022/03/17 05:45:17;;;;;;;8.10;5.00;;;;;;;4.90;79.27;95703.44;5075560;28;20170;-88
2022/03/17 05:47:45;;;;;;;11.13;5.30;;;;;;;5.16;77.55;95740.78;5057322;28;20202;-90
2022/03/17 05:50:13;;;;;;;6.60;4.70;;;;;;;5.41;78.03;95787.88;5054588;28;20177;-90
2022/03/17 05:52:40;;;;;;;7.20;4.63;;;;;;;4.75;77.97;95713.63;5057576;28;20269;-90
2022/03/17 05:55:06;;;;;;;6.83;4.50;;;;;;;5.06;78.50;95768.75;5057489;28;20196;-90
2022/03/17 05:57:36;;;;;;;6.50;4.60;;;;;;;4.91;78.10;95728.56;5057207;28;20178;-90
2022/03/17 06:00:04;;;;;;;6.70;4.40;;;;;;;5.04;78.88;95764.66;5057249;28;20240;-88
2022/03/17 06:02:30;;;;;;;7.50;4.83;;;;;;;5.26;78.92;95808.50;5055759;28;20260;-88
2022/03/17 06:04:55;;;;;;;7.73;4.20;;;;;;;4.51;78.83;95688.22;5056853;28;20635;-89
2022/03/17 06:07:21;;;;;;;11.37;4.77;;;;;;;4.80;79.01;95728.81;5074781;28;20191;-88
2022/03/17 06:09:47;;;;;;;5.70;3.70;;;;;;;4.77;78.89;95727.31;5075580;28;20155;-89
2022/03/17 06:12:13;;;;;;;7.67;3.80;;;;;;;4.93;79.61;95766.53;5057322;28;20265;-89
2022/03/17 06:14:39;;;;;;;5.97;4.33;;;;;;;4.68;79.85;95732.63;5057556;28;20575;-89
2022/03/17 06:17:04;;;;;;;4.67;3.73;;;;;;;4.62;79.69;95734.06;5075462;28;20194;-90
2022/03/17 06:19:30;;;;;;;6.87;4.10;;;;;;;4.87;79.54;95769.78;5075032;28;20185;-87
2022/03/17 06:21:55;;;;;;;5.37;3.60;;;;;;;4.80;79.06;95755.72;5056728;28;20197;-86
2022/03/17 06:24:20;;;;;;;5.70;4.00;;;;;;;4.79;79.53;95743.66;5074616;28;20174;-86
2022/03/17 06:26:46;;;;;;;5.33;3.60;;;;;;;4.66;79.26;95743.25;5056786;28;20191;-86
2022/03/17 06:29:11;;;;;;;7.30;4.50;;;;;;;4.37;79.75;95720.03;5075174;28;20467;-88
2022/03/17 06:31:37;;;;;;;6.40;3.97;;;;;;;4.98;80.86;95807.84;5057485;28;20171;-85
2022/03/17 06:34:03;;;;;;;5.73;3.97;;;;;;;4.55;80.39;95757.34;5083110;28;20222;-85
2022/03/17 06:36:29;;;;;;;6.23;3.97;;;;;;;4.49;80.69;95768.38;5079069;28;20181;-84
2022/03/17 06:38:54;;;;;;;7.53;4.27;;;;;;;4.26;80.70;95745.50;5074030;28;20228;-88
2022/03/17 06:41:20;;;;;;;10.30;5.37;;;;;;;4.45;81.78;95800.91;5055865;28;20178;-83
2022/03/17 06:43:45;;;;;;;6.17;3.80;;;;;;;4.31;82.18;95790.19;5073952;28;20231;-84
2022/03/17 06:46:11;;;;;;;7.03;4.37;;;;;;;4.48;83.06;95812.84;5082523;28;20201;-85
2022/03/17 06:48:36;;;;;;;7.63;4.60;;;;;;;4.60;82.66;95837.69;5059572;28;20573;-85
2022/03/17 06:51:02;;;;;;;5.33;4.07;;;;;;;4.61;83.35;95849.75;5055410;28;20175;-84
2022/03/17 06:53:27;;;;;;;7.07;4.77;;;;;;;4.43;84.49;95818.47;5073460;28;20178;-85
2022/03/17 06:55:53;;;;;;;8.40;4.60;;;;;;;4.27;83.69;95775.81;5073742;28;20640;-85
2022/03/17 06:58:18;;;;;;;5.97;4.33;;;;;;;4.75;83.86;95841.44;5074272;28;20261;-85
2022/03/17 07:00:44;;;;;;;8.97;4.00;;;;;;;4.57;82.86;95811.94;5056357;28;20170;-85
2022/03/17 07:03:09;;;;;;;6.70;4.37;;;;;;;4.87;82.56;95850.63;5074192;28;20167;-85
2022/03/17 07:05:35;;;;;;;5.73;4.37;;;;;;;4.37;83.23;95787.81;5074206;28;20155;-85
2022/03/17 07:08:00;;;;;;;5.60;3.80;;;;;;;4.30;83.31;95786.78;5074274;28;20741;-85
2022/03/17 07:10:29;;;;;;;7.17;4.73;;;;;;;4.85;83.73;95868.22;5074055;28;20178;-85
2022/03/17 07:12:55;;;;;;;5.80;4.00;;;;;;;4.78;82.61;95868.97;5056091;28;20615;-85
2022/03/17 07:15:21;;;;;;;6.23;4.20;;;;;;;4.50;83.32;95818.69;5074154;28;20179;-84
2022/03/17 07:17:46;;;;;;;7.93;4.50;;;;;;;4.30;83.40;95819.84;5056192;28;20173;-83
2022/03/17 07:20:14;;;;;;;7.63;4.77;;;;;;;4.08;83.34;95780.19;5055543;28;20213;-84
2022/03/17 07:22:42;;;;;;;6.03;4.00;;;;;;;4.51;83.17;95838.59;5055196;28;20192;-84
2022/03/17 07:25:09;;;;;;;6.63;4.30;;;;;;;4.21;82.93;95805.09;5055176;28;20964;-84
2022/03/17 07:27:43;;;;;;;8.00;5.00;;;;;;;4.66;82.77;95878.00;5073624;28;20190;-84
2022/03/17 07:30:17;;;;;;;8.03;4.97;;;;;;;4.41;82.83;95835.25;5053621;28;20232;-83
2022/03/17 07:32:42;;;;;;;9.00;4.70;;;;;;;4.21;82.71;95807.69;5072584;28;20245;-83
2022/03/17 07:35:08;;;;;;;9.67;5.80;;;;;;;4.36;82.82;95840.91;5073153;28;20198;-83
2022/03/17 07:37:34;;;;;;;6.87;4.97;;;;;;;4.72;82.05;95893.88;5072899;28;20185;-82
2022/03/17 07:39:59;;;;;;;9.03;5.23;;;;;;;4.31;82.93;95814.47;5073093;28;20554;-83
2022/03/17 07:42:25;;;;;;;10.67;5.53;;;;;;;4.26;83.13;95803.66;5054727;28;20185;-83
2022/03/17 07:44:50;;;;;;;10.27;6.27;;;;;;;4.57;82.80;95853.66;5072918;28;20174;-83
2022/03/17 07:47:17;;;;;;;9.77;6.07;;;;;;;4.37;82.63;95831.28;5073378;28;20328;-83
2022/03/17 07:49:43;;;;;;;8.67;5.57;;;;;;;4.83;83.22;95898.06;5065123;28;20229;-83
2022/03/17 07:52:09;;;;;;;11.93;6.10;;;;;;;4.89;83.10;95885.22;5073247;28;20661;-84
2022/03/17 07:54:35;;;;;;;11.87;6.60;;;;;;;4.69;82.81;95841.19;5070157;28;20178;-84
2022/03/17 07:57:03;;;;;;;10.17;6.23;;;;;;;4.63;80.97;95823.53;5054553;28;20167;-84
2022/03/17 07:59:29;;;;;;;11.00;6.63;;;;;;;4.84;81.28;95863.97;5073144;28;20174;-84
2022/03/17 08:01:54;;;;;;;10.17;6.57;;;;;;;5.19;81.82;95893.63;5082462;28;20205;-83
2022/03/17 08:04:20;;;;;;;12.90;7.87;;;;;;;5.19;81.86;95875.34;5070925;28;20213;-83
2022/03/17 08:06:45;;;;;;;11.77;6.80;;;;;;;5.05;79.57;95861.06;5072437;28;20960;-83
2022/03/17 08:09:11;;;;;;;10.73;7.37;;;;;;;5.12;79.75;95866.47;5071751;28;20189;-82
2022/03/17 08:11:36;;;;;;;16.53;9.63;;;;;;;4.73;79.94;95827.72;5071791;28;20181;-83
2022/03/17 08:14:02;;;;;;;13.97;8.23;;;;;;;5.02;79.33;95853.50;5072084;28;20172;-88
2022/03/17 08:16:28;;;;;;;12.40;7.57;;;;;;;4.54;79.34;95792.19;5072763;28;20190;-88
2022/03/17 08:18:53;;;;;;;13.07;7.43;;;;;;;4.49;80.41;95801.44;5054778;28;20189;-88
2022/03/17 08:21:21;;;;;;;9.77;7.30;;;;;;;4.82;79.54;95844.25;5054995;28;20186;-88
2022/03/17 08:23:47;;;;;;;14.60;7.10;;;;;;;4.67;79.12;95802.22;5072402;28;20185;-88
2022/03/17 08:26:16;;;;;;;13.40;7.83;;;;;;;5.26;79.72;95899.88;5072094;28;20182;-85
2022/03/17 08:28:42;;;;;;;22.43;7.97;;;;;;;4.90;80.83;95847.75;5053090;28;20217;-87
2022/03/17 08:31:07;;;;;;;11.00;7.43;;;;;;;5.15;78.91;95860.97;5054554;28;20654;-85
2022/03/17 08:33:34;;;;;;;11.47;7.40;;;;;;;4.89;77.71;95804.34;5071179;28;20241;-85
2022/03/17 08:36:00;;;;;;;10.97;6.90;;;;;;;5.67;79.71;95903.56;5053937;28;20585;-84
2022/03/17 08:38:25;;;;;;;11.07;8.17;;;;;;;4.97;78.60;95776.69;5054094;28;20182;-88
2022/03/17 08:40:51;;;;;;;11.30;7.33;;;;;;;5.12;79.03;95816.91;5054520;28;20182;-87
2022/03/17 08:43:19;;;;;;;10.23;6.47;;;;;;;5.40;79.11;95841.88;5052676;28;20174;-86
2022/03/17 08:51:13;;;;;;;11.03;6.97;;;;;;;5.71;76.65;95876.16;5071447;28;20204;-84
2022/03/17 08:53:39;;;;;;;11.73;7.20;;;;;;;5.88;76.81;95909.25;5071511;28;20212;-85
2022/03/17 08:56:05;;;;;;;11.17;7.63;;;;;;;5.82;75.71;95894.16;5071094;28;20380;-87
2022/03/17 08:58:30;;;;;;;11.00;6.83;;;;;;;5.87;75.50;95906.78;5053583;28;20257;-82
2022/03/17 09:01:00;;;;;;;10.17;7.20;;;;;;;5.41;75.80;95848.72;5073289;28;20681;-85
2022/03/17 09:03:26;;;;;;;10.57;7.53;;;;;;;5.35;76.40;95849.34;5077421;28;20170;-85
2022/03/17 09:05:52;;;;;;;8.43;5.77;;;;;;;5.11;75.89;95823.06;5075285;28;20650;-85
2022/03/17 09:08:17;;;;;;;11.10;7.43;;;;;;;5.45;77.08;95886.59;5053401;28;20209;-85
2022/03/17 09:10:43;;;;;;;10.13;6.70;;;;;;;5.41;77.37;95887.91;5070257;28;20245;-87
2022/03/17 09:13:09;;;;;;;12.60;6.63;;;;;;;5.37;78.38;95889.16;5056604;28;20190;-86
2022/03/17 09:15:38;;;;;;;9.20;6.00;;;;;;;5.36;77.87;95871.06;5064329;28;20198;-85
2022/03/17 09:18:06;;;;;;;9.20;6.40;;;;;;;5.43;78.52;95895.59;5059403;28;20175;-87
2022/03/17 09:20:31;;;;;;;8.43;6.33;;;;;;;5.17;78.41;95859.03;5054664;28;20213;-87
2022/03/17 09:22:56;;;;;;;8.63;5.87;;;;;;;5.50;78.53;95901.81;5055602;28;20193;-89
2022/03/17 09:25:24;;;;;;;13.97;6.20;;;;;;;5.64;78.86;95911.69;5052019;28;20629;-86
2022/03/17 09:27:51;;;;;;;8.03;5.67;;;;;;;5.66;78.62;95902.75;5051954;28;20202;-84
2022/03/17 09:30:17;;;;;;;9.87;5.50;;;;;;;5.37;77.17;95855.22;5053167;28;20201;-86
2022/03/17 09:32:45;;;;;;;8.70;5.60;;;;;;;5.65;77.11;95895.88;5053015;28;20225;-87
2022/03/17 09:35:11;;;;;;;8.13;5.93;;;;;;;5.74;76.86;95904.56;5052683;28;20273;-87
2022/03/17 09:37:37;;;;;;;8.77;5.87;;;;;;;5.30;75.72;95859.44;5054285;28;20174;-86
2022/03/17 09:40:05;;;;;;;8.83;6.07;;;;;;;5.68;78.15;95960.88;5071947;28;20257;-84
2022/03/17 09:42:31;;;;;;;10.27;6.17;;;;;;;5.21;76.72;95889.88;5073066;28;20659;-82
2022/03/17 09:44:56;;;;;;;8.27;5.57;;;;;;;5.49;76.96;95921.91;5054972;28;20705;-88
2022/03/17 09:47:27;;;;;;;7.97;5.13;;;;;;;5.28;76.06;95863.97;5051500;28;20214;-84
2022/03/17 09:49:54;;;;;;;9.27;5.40;;;;;;;5.21;75.94;95836.84;5072713;28;20195;-87
2022/03/17 09:52:21;;;;;;;8.97;5.77;;;;;;;5.92;75.55;95954.19;5073256;28;20162;-88
2022/03/17 09:54:54;;;;;;;7.77;5.97;;;;;;;4.97;75.89;95823.66;5073777;28;20186;-88
2022/03/17 09:57:23;;;;;;;8.50;5.63;;;;;;;4.38;76.91;95775.59;5050584;28;20186;-86
2022/03/17 10:00:15;;;;;;;9.30;6.00;;;;;;;4.34;78.16;95775.06;5052936;28;20170;-86
2022/03/17 10:02:44;;;;;;;8.43;6.10;;;;;;;5.01;78.91;95878.00;5070894;28;20173;-87
2022/03/17 10:05:11;;;;;;;11.27;6.67;;;;;;;5.24;78.75;95899.19;5053566;28;20190;-89
2022/03/17 10:07:38;;;;;;;8.30;5.53;;;;;;;4.91;77.19;95820.69;5053076;28;20194;-88
2022/03/17 10:10:07;;;;;;;8.10;5.60;;;;;;;5.56;77.53;95894.19;5053947;28;20170;-88
2022/03/17 10:12:35;;;;;;;6.33;4.07;;;;;;;5.02;71.70;95809.16;5054098;28;20635;-90
2022/03/17 10:15:01;;;;;;;4.20;3.53;;;;;;;5.64;72.83;95898.63;5071684;28;20163;-91
2022/03/17 10:17:34;;;;;;;5.30;3.83;;;;;;;5.06;70.51;95791.41;5059372;28;20163;-92
2022/03/17 10:20:13;;;;;;;4.67;4.00;;;;;;;6.13;69.72;95959.03;5061898;28;20187;-88
2022/03/17 10:22:47;;;;;;;5.77;4.20;;;;;;;6.05;70.73;95937.09;5055906;28;20228;-88
2022/03/17 10:25:16;;;;;;;6.07;3.87;;;;;;;6.00;68.82;95939.38;5070861;28;20220;-87
2022/03/17 10:27:46;;;;;;;4.53;3.90;;;;;;;5.61;69.62;95881.50;5073443;28;20194;-86
2022/03/17 10:30:21;;;;;;;7.33;4.07;;;;;;;5.79;69.01;95922.41;5078696;28;20174;-86
2022/03/17 10:32:57;;;;;;;7.30;4.80;;;;;;;6.18;70.75;95980.31;5074424;28;20229;-87
2022/03/17 10:35:26;;;;;;;10.10;4.40;;;;;;;5.90;71.10;95933.44;5072374;28;20243;-87
2022/03/17 10:37:52;;;;;;;5.97;4.37;;;;;;;6.04;71.37;95930.25;5052881;28;20177;-86
2022/03/17 10:40:18;;;;;;;8.43;4.83;;;;;;;6.02;69.86;95929.59;5074446;28;20182;-86
2022/03/17 10:42:43;;;;;;;9.57;4.30;;;;;;;6.16;71.09;95948.25;5074491;28;20278;-92
2022/03/17 10:45:09;;;;;;;7.87;5.27;;;;;;;6.21;69.82;95932.94;5056849;28;20188;-89
2022/03/17 10:47:37;;;;;;;6.80;4.80;;;;;;;6.05;68.93;95894.50;5056619;28;20209;-92
2022/03/17 10:50:10;;;;;;;6.97;4.60;;;;;;;6.62;69.46;95973.94;5057119;28;20175;-87
2022/03/17 10:52:45;;;;;;;8.17;5.13;;;;;;;6.23;68.28;95899.59;5056968;28;20614;-90
2022/03/17 10:55:12;;;;;;;7.00;4.90;;;;;;;6.75;68.01;95979.53;5074667;28;20158;-89
2022/03/17 10:57:38;;;;;;;6.40;4.70;;;;;;;6.36;67.71;95919.09;5074880;28;20178;-88
2022/03/17 11:00:09;;;;;;;6.77;4.80;;;;;;;6.37;69.27;95922.53;5055877;28;20189;-88
2022/03/17 11:02:37;;;;;;;7.03;4.63;;;;;;;6.56;66.96;95937.16;5055746;28;20187;-86
2022/03/17 11:05:06;;;;;;;5.70;4.17;;;;;;;6.38;67.57;95905.88;5073638;28;20667;-86
2022/03/17 11:07:32;;;;;;;6.47;4.63;;;;;;;6.69;67.35;95966.28;5070974;28;20721;-87
2022/03/17 11:10:07;;;;;;;6.07;3.87;;;;;;;6.67;67.31;95984.75;5074029;28;20178;-87
2022/03/17 11:12:34;;;;;;;6.67;3.40;;;;;;;6.46;68.06;95967.84;5074537;28;20202;-87
2022/03/17 11:15:01;;;;;;;5.20;4.30;;;;;;;5.87;68.71;95878.84;5055751;28;20263;-87
2022/03/17 11:17:35;;;;;;;11.23;4.90;;;;;;;5.98;68.78;95906.50;5064208;28;20225;-87
2022/03/17 11:20:12;;;;;;;7.93;4.97;;;;;;;6.07;69.17;95929.09;5062927;28;20190;-87
2022/03/17 11:22:39;;;;;;;7.67;4.90;;;;;;;6.43;70.13;95969.78;5044222;28;20200;-87
2022/03/17 11:25:28;;;;;;;8.13;5.47;;;;;;;6.44;68.59;95968.00;5047550;28;20181;-87
2022/03/17 11:27:58;;;;;;;6.03;4.27;;;;;;;6.22;67.81;95948.47;5046317;28;20202;-86
2022/03/17 11:30:29;;;;;;;7.00;4.77;;;;;;;6.20;66.99;95955.66;5046881;28;20208;-87
2022/03/17 11:32:58;;;;;;;7.13;4.80;;;;;;;5.89;67.08;95904.84;5079500;28;20214;-86
2022/03/17 11:35:29;;;;;;;7.57;5.33;;;;;;;6.25;66.65;95958.59;5056678;28;20201;-87
2022/03/17 11:38:18;;;;;;;9.43;5.37;;;;;;;6.28;67.57;95962.72;5046150;28;20607;-87
2022/03/17 11:41:08;;;;;;;9.27;5.30;;;;;;;6.40;67.63;95951.78;5043872;28;20273;-87
2022/03/17 11:43:46;;;;;;;7.20;4.73;;;;;;;6.38;69.19;95955.56;5050127;28;20182;-87
2022/03/17 11:46:16;;;;;;;6.93;5.20;;;;;;;6.38;69.94;95955.56;5082811;28;20182;-87
2022/03/17 11:48:44;;;;;;;9.43;5.90;;;;;;;6.21;70.41;95953.84;5048755;28;20182;-88
2022/03/17 11:51:12;;;;;;;10.17;5.60;;;;;;;5.65;72.01;95887.22;5048400;28;20270;-87
2022/03/17 11:53:44;;;;;;;13.07;7.47;;;;;;;5.87;74.40;95959.03;5048935;28;20572;-88
2022/03/17 11:56:09;;;;;;;13.40;7.40;;;;;;;5.86;75.73;95946.94;5043920;28;20309;-88
2022/03/17 11:58:42;;;;;;;10.97;6.70;;;;;;;5.71;75.94;95956.31;5050835;28;20729;-87